Nearby METAR Reports

 

KUAO - Aurora, Oregon, USA
Distance from station: SSE 7mi, 12km
Updated: 06/19/2024 7:53pm
Clear
Clear
 Wind from WNW
Wind: WNW 3 mph , 6 km/h
Temperature: 81°F , 27°C
Dew Point: 46°F , 8°C
Humidity: 30%
Barometer: 29.87 inHg , 1011.5 hPa
Clouds: Clear
Visibility: 10 miles , 16 km
2024/06/20 02:53 KUAO 200253Z 30003KT 10SM CLR 27/08 A2987 RMK AO2 SLP113 T02720083 55003 $
KHIO - Hillsboro/Portld, Oregon, USA
Distance from station: NNW 15mi, 24km
Updated: 06/19/2024 7:53pm
Clear
Clear
 Wind from WNW
Wind: WNW 6 mph , 9 km/h
Temperature: 79°F , 26°C
Dew Point: 52°F , 11°C
Humidity: 39%
Barometer: 29.86 inHg , 1011.2 hPa
Clouds: Clear
Visibility: 10 miles , 16 km
2024/06/20 02:53 KHIO 200253Z 30005KT 10SM CLR 26/11 A2986 RMK AO2 SLP111 T02610106 55002
 
KMMV - Mcminnville, Oregon, USA
Distance from station: SW 18mi, 29km
Updated: 06/19/2024 7:53pm
Clear
Clear
 Wind from SW
Wind: SW 10 mph , 17 km/h
Temperature: 73°F , 23°C
Dew Point: 55°F , 13°C
Humidity: 53%
Barometer: 29.87 inHg , 1011.5 hPa
Clouds: Clear
Visibility: 10 miles , 16 km
2024/06/20 02:53 KMMV 200253Z AUTO 22009KT 10SM CLR 23/13 A2987 RMK AO2 SLP112 T02280133 55000
KPDX - Portland, Oregon, USA
Distance from station: NNE 20mi, 32km
Updated: 06/19/2024 7:53pm
Mostly cloudy
Mostly cloudy
 Wind from NW
Wind: NW 6 mph , 9 km/h
Temperature: 81°F , 27°C
Dew Point: 48°F , 9°C
Humidity: 32%
Barometer: 29.86 inHg , 1011.2 hPa
Clouds: Mostly cloudy
Visibility: 10 miles , 16 km
Cloud details: Few Clouds 4000 ft
Mostly cloudy 25000 ft
2024/06/20 02:53 KPDX 200253Z 31005KT 10SM FEW040 BKN250 27/09 A2986 RMK AO2 SLP110 T02720094 55002
 
KVUO - Vancouver, Washington, USA
Distance from station: NNE 20mi, 33km
Updated: 06/19/2024 7:53pm
Clear
Clear
 Wind from varies
Wind: varies 5 mph , 7 km/h
Temperature: 82°F , 28°C
Dew Point: 46°F , 8°C
Humidity: 28%
Barometer: 29.87 inHg , 1011.5 hPa
Clouds: Clear
Visibility: 10 miles , 16 km
2024/06/20 02:53 KVUO 200253Z AUTO VRB04KT 10SM CLR 28/08 A2987 RMK AO2 SLP115 T02780083 55003
KTTD - Troutdale, Oregon, USA
Distance from station: NE 24mi, 39km
Updated: 06/19/2024 7:53pm
Clear
Clear
 Wind from calm
Wind: Calm
Temperature: 82°F , 28°C
Dew Point: 48°F , 9°C
Humidity: 30%
Barometer: 29.85 inHg , 1010.8 hPa
Clouds: Clear
Visibility: 10 miles , 16 km
2024/06/20 02:53 KTTD 200253Z AUTO 00000KT 10SM CLR 28/09 A2985 RMK AO2 SLP108 T02780094 55002
 
KSPB - Scappoose, Oregon, USA
Distance from station: N 29mi, 47km
Updated: 06/19/2024 7:53pm
Clear
Clear
 Wind from NW
Wind: NW 7 mph , 11 km/h
Barometer: 29.86 inHg , 1011.2 hPa
Clouds: Clear
Visibility: 10 miles , 16 km
2024/06/20 02:53 KSPB 200253Z AUTO 32006KT 10SM CLR A2986 RMK AO2 SLPNO 55000 $
KSLE - Salem, Oregon, USA
Distance from station: SSW 32mi, 52km
Updated: 06/19/2024 7:56pm
Clear
Clear
 Wind from WNW
Wind: WNW 8 mph , 13 km/h
Temperature: 81°F , 27°C
Dew Point: 52°F , 11°C
Humidity: 37%
Barometer: 29.87 inHg , 1011.5 hPa
Clouds: Clear
Visibility: 10 miles , 16 km
2024/06/20 02:56 KSLE 200256Z 29007KT 10SM CLR 27/11 A2987 RMK AO2 SLP112 T02670111 55001
 
KTMK - Tillamook, Oregon, USA
Distance from station: W 48mi, 78km
Updated: 06/19/2024 7:55pm
Clear
Clear
 Wind from W
Wind: W 6 mph , 9 km/h
Temperature: 59°F , 15°C
Dew Point: 59°F , 15°C
Humidity: 100%
Barometer: 29.97 inHg , 1014.9 hPa
Clouds: Clear
Visibility: 10 miles , 16 km
2024/06/20 02:55 KTMK 200255Z AUTO 26005KT 10SM CLR 15/15 A2997 RMK AO2